Goodwood, Louisiana
Current Conditions -  °F | °C
As of 12:55 AM on Sunday 21 Dec 2014 (Local Time) from KHZR Reporting Station
Haze Haze  
Wind Chill: 40°   Ceiling: Unl
Heat Index: 42°   Visibility: 5mi
Dew Point: 42°   Wind: 5mph
Humidity: 98%   Direction: 20°NNE
Pressure: 30.18"   Gusts: NA
Location:  30.6648°N, 91.7944°W
Report Text: KHZR 210655Z AUTO 02004KT 5SM BR CLR 06/06 A3018 RMK AO2 T00580055
Loading
Personal Weather Stations






























Interactive Weather Map New forecast layout! Learn more

10-Day Weather Forecast

Advertisements
Track Severe Weather on mobile